Terminal Aerodrome Forecast
Issued by NWS Memphis, TN

Current Version | Previous Version | Text Only | Print | Product List | Glossary On
Versions: 1 2 3 4 5 6 7 8 9 10 11 12 13 14 15 16 17 18 19 20 21 22
000
FTUS44 KMEG 051120
TAFMKL
TAF
KMKL 051120Z 0512/0612 24003KT P6SM BKN012 OVC020
      TEMPO 0512/0515 4SM BR OVC007
     FM051600 24005KT P6SM SCT020 OVC050
     FM051900 23006KT P6SM VCTS BKN040CB
     FM060000 19003KT P6SM SCT040 SCT250
     FM060700 20002KT 4SM BR SCT020 OVC050=

USA.gov is the U.S. government's official web portal to all federal, state and local government web resources and services.